Time;durP1;ratioP1;P1;durP2;ratioP2;P2;SDS_P1;SDS_P2;PMS_P1;PMS_P2;Temp;Humidity;BMP_temperature;BMP_pressure;BME280_temperature;BME280_humidity;BME280_pressure;Samples;Min_cycle;Max_cycle;Signal;HPM_P1;HPM_P2
2024/04/09 00:00:08;;;;;;;9.73;4.82;;;16.00;99.90;;;;;;5396585;26;19995;-69
2024/04/09 00:02:33;;;;;;;9.90;4.65;;;15.90;99.90;;;;;;5380769;26;20006;-70
2024/04/09 00:04:59;;;;;;;10.65;4.72;;;15.90;99.90;;;;;;5395940;26;20528;-69
2024/04/09 00:07:25;;;;;;;15.25;4.55;;;15.90;99.90;;;;;;5401653;26;20011;-71
2024/04/09 00:09:55;;;;;;;11.35;4.40;;;15.80;99.90;;;;;;5405578;26;20015;-70
2024/04/09 00:12:21;;;;;;;7.80;4.80;;;15.90;99.90;;;;;;5380389;26;20004;-71
2024/04/09 00:14:48;;;;;;;13.88;5.05;;;15.80;99.90;;;;;;5411722;26;20106;-70
2024/04/09 00:17:19;;;;;;;13.43;5.75;;;15.80;99.90;;;;;;5399481;26;20342;-72
2024/04/09 00:19:48;;;;;;;12.60;4.72;;;15.80;99.90;;;;;;5400877;26;20717;-71
2024/04/09 00:22:14;;;;;;;13.15;6.38;;;15.80;99.90;;;;;;5411048;26;20072;-71
2024/04/09 00:24:40;;;;;;;12.02;4.68;;;15.80;99.90;;;;;;5418068;26;20910;-69
2024/04/09 00:27:06;;;;;;;14.18;4.82;;;15.80;99.90;;;;;;5405212;26;20012;-72
2024/04/09 00:29:34;;;;;;;17.55;4.60;;;15.80;99.90;;;;;;5403460;26;20012;-70
2024/04/09 00:32:00;;;;;;;18.25;5.18;;;15.80;99.90;;;;;;5409545;26;20087;-69
2024/04/09 00:34:27;;;;;;;12.13;4.65;;;15.70;99.90;;;;;;5367576;26;20003;-71
2024/04/09 00:36:53;;;;;;;11.15;4.45;;;15.70;99.90;;;;;;5395358;26;20074;-69
2024/04/09 00:39:23;;;;;;;18.95;4.85;;;15.70;99.90;;;;;;5396867;26;20000;-70
2024/04/09 00:41:49;;;;;;;15.35;4.75;;;15.70;99.90;;;;;;5416373;26;20470;-68
2024/04/09 00:44:15;;;;;;;11.32;4.13;;;15.70;99.90;;;;;;5412203;26;20000;-71
2024/04/09 00:46:43;;;;;;;13.80;4.78;;;15.70;99.90;;;;;;5406270;26;20731;-69
2024/04/09 00:49:10;;;;;;;17.38;4.80;;;15.70;99.90;;;;;;5404459;26;20007;-69
2024/04/09 00:51:39;;;;;;;15.40;4.90;;;15.70;99.90;;;;;;5406912;26;20014;-69
2024/04/09 00:54:05;;;;;;;19.45;5.03;;;15.70;99.90;;;;;;5399545;26;20000;-70
2024/04/09 00:56:33;;;;;;;9.50;4.25;;;15.70;99.90;;;;;;5405700;26;20655;-69
2024/04/09 00:58:59;;;;;;;;;;;15.70;99.90;;;;;;5370569;26;20011;-69
2024/04/09 01:01:26;;;;;;;14.07;5.28;;;15.80;99.90;;;;;;5403920;26;19925;-70
2024/04/09 01:03:52;;;;;;;23.48;5.30;;;15.80;99.90;;;;;;5369181;26;20455;-69
2024/04/09 01:06:18;;;;;;;12.70;4.90;;;15.80;99.90;;;;;;5364747;26;20012;-69
2024/04/09 01:08:43;;;;;;;11.50;4.35;;;15.80;99.90;;;;;;5409498;26;20003;-71
2024/04/09 01:11:09;;;;;;;15.35;4.93;;;15.80;99.90;;;;;;5405544;26;20011;-70
2024/04/09 01:13:38;;;;;;;12.52;5.07;;;15.90;99.90;;;;;;5402147;26;20801;-71
2024/04/09 01:16:05;;;;;;;19.55;4.78;;;15.90;99.90;;;;;;5373818;26;20047;-69
2024/04/09 01:18:30;;;;;;;15.18;4.93;;;16.00;99.90;;;;;;5408854;26;20076;-71
2024/04/09 01:20:56;;;;;;;20.08;6.22;;;16.00;99.90;;;;;;5407073;26;20025;-70
2024/04/09 01:23:21;;;;;;;25.35;7.25;;;16.00;99.90;;;;;;5359563;26;20677;-71
2024/04/09 01:25:47;;;;;;;14.07;5.53;;;16.10;99.90;;;;;;5412879;26;20484;-70
2024/04/09 01:28:13;;;;;;;15.23;5.10;;;16.10;99.90;;;;;;5410154;26;20011;-70
2024/04/09 01:30:40;;;;;;;12.30;5.07;;;16.10;99.90;;;;;;5366538;26;19996;-68
2024/04/09 01:33:06;;;;;;;21.95;7.22;;;16.10;99.90;;;;;;5396381;26;20012;-72
2024/04/09 01:35:32;;;;;;;17.65;6.00;;;16.20;99.90;;;;;;5410364;26;19999;-71
2024/04/09 01:37:58;;;;;;;16.35;5.18;;;16.30;99.90;;;;;;5407418;26;20071;-73
2024/04/09 01:40:24;;;;;;;14.30;4.90;;;16.30;99.90;;;;;;5395784;26;19992;-71
2024/04/09 01:42:50;;;;;;;18.45;5.43;;;16.30;99.90;;;;;;5398032;26;20048;-70
2024/04/09 01:45:15;;;;;;;10.00;5.32;;;16.40;99.90;;;;;;5367776;26;19999;-71
2024/04/09 01:47:41;;;;;;;14.27;5.13;;;16.30;99.90;;;;;;5406061;26;20025;-69
2024/04/09 01:50:10;;;;;;;18.30;5.65;;;16.40;99.90;;;;;;5402887;26;20012;-70
2024/04/09 01:52:36;;;;;;;18.05;5.57;;;16.40;99.90;;;;;;5371374;26;20006;-71
2024/04/09 01:55:05;;;;;;;16.88;5.28;;;16.40;99.90;;;;;;5403490;26;20072;-69
2024/04/09 01:57:33;;;;;;;16.60;5.60;;;16.40;99.90;;;;;;5422483;26;19999;-70
2024/04/09 01:59:59;;;;;;;20.48;5.93;;;16.50;99.90;;;;;;5400234;26;20000;-71
2024/04/09 02:02:25;;;;;;;22.40;6.90;;;16.50;99.90;;;;;;5408587;26;20344;-71
2024/04/09 02:04:50;;;;;;;17.95;5.63;;;16.50;99.90;;;;;;5370184;26;20007;-71
2024/04/09 02:07:16;;;;;;;16.23;6.03;;;16.50;99.90;;;;;;5403568;26;20467;-70
2024/04/09 02:09:42;;;;;;;16.05;5.40;;;16.50;99.90;;;;;;5407493;26;20023;-71
2024/04/09 02:12:08;;;;;;;25.30;5.53;;;16.50;99.90;;;;;;5408508;26;19991;-70
2024/04/09 02:14:35;;;;;;;21.25;5.63;;;16.50;99.90;;;;;;5404713;26;20018;-70
2024/04/09 02:17:01;;;;;;;20.15;6.65;;;16.50;99.90;;;;;;5407853;26;19996;-69
2024/04/09 02:19:27;;;;;;;17.58;5.65;;;16.50;99.90;;;;;;5365726;26;20013;-70
2024/04/09 02:21:52;;;;;;;15.20;6.03;;;16.50;99.90;;;;;;5419833;26;20046;-71
2024/04/09 02:24:18;;;;;;;18.77;6.43;;;16.60;99.90;;;;;;5406133;26;20000;-69
2024/04/09 02:26:44;;;;;;;12.65;5.32;;;16.60;99.90;;;;;;5369732;26;20001;-71
2024/04/09 02:29:11;;;;;;;16.15;5.90;;;16.60;99.90;;;;;;5406881;26;19999;-70
2024/04/09 02:31:37;;;;;;;23.77;8.32;;;16.60;99.90;;;;;;5415754;26;20003;-69
2024/04/09 02:34:02;;;;;;;13.23;5.10;;;16.70;99.90;;;;;;5402528;26;20941;-69
2024/04/09 02:36:28;;;;;;;16.08;5.88;;;16.70;99.90;;;;;;5409436;26;20060;-71
2024/04/09 02:38:53;;;;;;;15.15;4.93;;;16.70;99.90;;;;;;5407811;26;20011;-70
2024/04/09 02:41:20;;;;;;;20.27;6.50;;;16.70;99.90;;;;;;5411332;26;20019;-69
2024/04/09 02:43:46;;;;;;;17.00;4.68;;;16.70;99.90;;;;;;5399222;26;20000;-69
2024/04/09 02:46:12;;;;;;;16.20;6.10;;;16.80;99.90;;;;;;5367005;26;20081;-69
2024/04/09 02:48:38;;;;;;;18.73;5.43;;;16.80;99.90;;;;;;5409648;26;19996;-72
2024/04/09 02:51:05;;;;;;;21.48;4.90;;;16.80;99.90;;;;;;5403102;26;20410;-70
2024/04/09 02:53:32;;;;;;;15.98;5.18;;;16.80;99.90;;;;;;5406919;26;20007;-69
2024/04/09 02:56:18;;;;;;;19.63;5.32;;;16.80;99.90;;;;;;5345126;26;20464;-70
2024/04/09 02:58:43;;;;;;;17.50;4.82;;;16.80;99.90;;;;;;5407438;26;20007;-72
2024/04/09 03:01:10;;;;;;;24.45;5.82;;;16.80;99.90;;;;;;5381226;26;20451;-69
2024/04/09 03:03:37;;;;;;;19.08;5.53;;;16.70;99.90;;;;;;5416115;26;20059;-70
2024/04/09 03:06:11;;;;;;;17.88;5.65;;;16.70;99.90;;;;;;5409186;26;20004;-70
2024/04/09 03:08:41;;;;;;;18.05;5.72;;;16.70;99.90;;;;;;5405122;26;20035;-69
2024/04/09 03:11:13;;;;;;;17.23;5.30;;;16.70;99.90;;;;;;5399027;26;20081;-71
2024/04/09 03:13:41;;;;;;;11.45;5.50;;;16.70;99.90;;;;;;5396668;26;20011;-71
2024/04/09 03:16:16;;;;;;;13.67;5.67;;;16.90;99.90;;;;;;5404834;26;20030;-71
2024/04/09 03:18:42;;;;;;;21.35;5.43;;;16.80;99.90;;;;;;5402334;26;20011;-69
2024/04/09 03:21:09;;;;;;;10.43;5.60;;;16.80;99.90;;;;;;5412801;26;20011;-69
2024/04/09 03:23:34;;;;;;;14.60;5.28;;;16.80;99.90;;;;;;5399621;26;20081;-72
2024/04/09 03:26:01;;;;;;;21.20;6.13;;;16.80;99.90;;;;;;5396746;26;20004;-69
2024/04/09 03:28:26;;;;;;;16.08;4.80;;;16.80;99.90;;;;;;5408855;26;20007;-69
2024/04/09 03:31:00;;;;;;;17.88;5.03;;;16.80;99.90;;;;;;5410328;26;20684;-70
2024/04/09 03:33:25;;;;;;;10.18;5.18;;;16.90;99.90;;;;;;5401337;26;20018;-71
2024/04/09 03:36:03;;;;;;;15.05;5.78;;;16.80;99.90;;;;;;5413209;26;20455;-70
2024/04/09 03:38:29;;;;;;;19.25;5.38;;;16.80;99.90;;;;;;5412460;26;20002;-69
2024/04/09 03:41:00;;;;;;;12.48;5.38;;;16.80;99.90;;;;;;5409232;26;20023;-70
2024/04/09 03:43:26;;;;;;;23.40;5.63;;;16.80;99.90;;;;;;5414387;26;20022;-71
2024/04/09 03:46:09;;;;;;;20.23;5.28;;;16.80;99.90;;;;;;5420665;26;20006;-70
2024/04/09 03:48:38;;;;;;;21.90;4.68;;;16.80;99.90;;;;;;5406824;26;20018;-68
2024/04/09 03:51:04;;;;;;;14.13;5.63;;;16.80;99.90;;;;;;5399924;26;20004;-69
2024/04/09 03:53:30;;;;;;;14.88;6.03;;;16.80;99.90;;;;;;5410200;26;20006;-69
2024/04/09 03:56:00;;;;;;;16.92;4.88;;;16.80;99.90;;;;;;5367699;26;20004;-70
2024/04/09 03:58:33;;;;;;;18.63;5.40;;;16.80;99.90;;;;;;5405307;26;20003;-70
2024/04/09 04:01:01;;;;;;;14.55;5.43;;;16.80;99.90;;;;;;5400350;26;20015;-71
2024/04/09 04:03:27;;;;;;;18.70;5.53;;;16.70;99.90;;;;;;5399471;26;20076;-72
2024/04/09 04:05:55;;;;;;;19.05;6.47;;;16.80;99.90;;;;;;5410475;26;19995;-71
2024/04/09 04:08:23;;;;;;;15.40;5.27;;;16.70;99.90;;;;;;5415920;26;19999;-69
2024/04/09 04:10:58;;;;;;;12.43;4.65;;;16.70;99.90;;;;;;5401892;26;20720;-71
2024/04/09 04:13:25;;;;;;;20.67;5.72;;;16.70;99.90;;;;;;5417922;26;20015;-70
2024/04/09 04:16:06;;;;;;;17.02;5.38;;;16.70;99.90;;;;;;5401851;26;20464;-72
2024/04/09 04:18:37;;;;;;;21.70;5.75;;;16.70;99.90;;;;;;5371008;26;19999;-69
2024/04/09 04:21:08;;;;;;;12.68;4.78;;;16.70;99.90;;;;;;5370426;26;20000;-72
2024/04/09 04:23:33;;;;;;;20.92;5.22;;;16.70;99.90;;;;;;5398192;26;20071;-72
2024/04/09 04:26:02;;;;;;;17.67;4.85;;;16.70;99.90;;;;;;5408385;26;20027;-70
2024/04/09 04:28:28;;;;;;;14.05;4.95;;;16.70;99.90;;;;;;5405110;26;20532;-70
2024/04/09 04:30:54;;;;;;;20.08;5.15;;;16.60;99.90;;;;;;5409384;26;20000;-69
2024/04/09 04:33:19;;;;;;;13.48;5.35;;;16.60;99.90;;;;;;5404465;26;20028;-72
2024/04/09 04:35:45;;;;;;;15.65;4.72;;;16.60;99.90;;;;;;5385745;26;20028;-71
2024/04/09 04:38:11;;;;;;;22.45;5.40;;;16.60;99.90;;;;;;5369601;26;20019;-66
2024/04/09 04:40:36;;;;;;;22.60;5.30;;;16.60;99.90;;;;;;5378205;26;20742;-67
2024/04/09 04:43:03;;;;;;;14.20;5.20;;;16.60;99.90;;;;;;5403600;26;20666;-67
2024/04/09 04:45:31;;;;;;;20.60;5.72;;;16.60;99.90;;;;;;5389583;26;20010;-67
2024/04/09 04:47:58;;;;;;;;;;;16.60;99.90;;;;;;5409952;26;19996;-67
2024/04/09 04:50:23;;;;;;;14.38;4.57;;;16.50;99.90;;;;;;5391014;26;19932;-68
2024/04/09 04:52:49;;;;;;;18.67;5.32;;;16.50;99.90;;;;;;5379802;26;20000;-66
2024/04/09 04:55:15;;;;;;;20.65;5.65;;;16.50;99.90;;;;;;5365555;26;20337;-67
2024/04/09 04:57:41;;;;;;;15.82;5.00;;;16.50;99.90;;;;;;5371566;26;20824;-67
2024/04/09 05:00:10;;;;;;;18.77;5.20;;;16.50;99.90;;;;;;5405462;26;19999;-67
2024/04/09 05:02:37;;;;;;;22.38;5.40;;;16.50;99.90;;;;;;5374441;26;20003;-68
2024/04/09 05:05:04;;;;;;;28.60;6.70;;;16.50;99.90;;;;;;5405295;26;19999;-67
2024/04/09 05:07:30;;;;;;;25.58;5.80;;;16.50;99.90;;;;;;5406816;26;20011;-66
2024/04/09 05:09:55;;;;;;;19.55;5.43;;;16.50;99.90;;;;;;5374868;26;20006;-67
2024/04/09 05:12:21;;;;;;;20.13;5.50;;;16.60;99.90;;;;;;5369372;26;20007;-68
2024/04/09 05:14:47;;;;;;;26.27;5.40;;;16.60;99.90;;;;;;5407138;26;20167;-67
2024/04/09 05:17:13;;;;;;;15.85;5.03;;;16.60;99.90;;;;;;5413167;26;20086;-67
2024/04/09 05:19:39;;;;;;;11.50;4.55;;;16.50;99.90;;;;;;5396752;26;20007;-67
2024/04/09 05:22:05;;;;;;;18.25;5.15;;;16.50;99.90;;;;;;5418782;26;20000;-67
2024/04/09 05:24:33;;;;;;;20.80;5.10;;;16.60;99.90;;;;;;5405319;26;20007;-67
2024/04/09 05:26:59;;;;;;;15.48;4.78;;;16.60;99.90;;;;;;5406325;26;19999;-67
2024/04/09 05:29:25;;;;;;;20.02;4.97;;;16.60;99.90;;;;;;5400505;26;20000;-67
2024/04/09 05:31:50;;;;;;;33.42;5.43;;;16.50;99.90;;;;;;5399777;26;19992;-67
2024/04/09 05:34:16;;;;;;;14.73;5.05;;;16.60;99.90;;;;;;5407140;26;20011;-65
2024/04/09 05:36:43;;;;;;;16.35;5.13;;;16.60;99.90;;;;;;5402486;26;20440;-67
2024/04/09 05:39:09;;;;;;;16.25;5.05;;;16.60;99.90;;;;;;5403543;26;20012;-66
2024/04/09 05:41:35;;;;;;;22.90;5.22;;;16.60;99.90;;;;;;5407580;26;20514;-67
2024/04/09 05:44:01;;;;;;;25.88;4.95;;;16.60;99.90;;;;;;5369150;26;20092;-67
2024/04/09 05:46:27;;;;;;;21.92;4.80;;;16.60;99.90;;;;;;5375077;26;20034;-66
2024/04/09 05:48:52;;;;;;;22.95;4.75;;;16.60;99.90;;;;;;5407754;26;20008;-67
2024/04/09 05:51:18;;;;;;;16.73;4.25;;;16.60;99.90;;;;;;5416008;26;20010;-67
2024/04/09 05:53:43;;;;;;;17.33;3.83;;;16.70;99.90;;;;;;5406614;26;20485;-67
2024/04/09 05:56:09;;;;;;;28.63;3.97;;;16.70;99.90;;;;;;5412331;26;20003;-67
2024/04/09 05:58:35;;;;;;;15.45;4.28;;;16.70;99.90;;;;;;5371587;26;19999;-66
2024/04/09 06:01:00;;;;;;;22.55;4.50;;;16.80;99.90;;;;;;5374427;26;20342;-67
2024/04/09 06:03:27;;;;;;;27.58;4.53;;;16.80;99.90;;;;;;5418446;26;20010;-67
2024/04/09 06:05:55;;;;;;;28.02;4.65;;;16.90;99.90;;;;;;5406027;26;20085;-67
2024/04/09 06:08:21;;;;;;;;;;;16.90;99.90;;;;;;5419792;26;20022;-67
2024/04/09 06:10:47;;;;;;;16.92;3.63;;;17.00;99.90;;;;;;5417964;26;19962;-67
2024/04/09 06:13:13;;;;;;;29.17;4.63;;;17.00;99.90;;;;;;5406123;26;20012;-64
2024/04/09 06:15:38;;;;;;;31.50;4.97;;;17.10;99.90;;;;;;5413335;26;20712;-67
2024/04/09 06:18:04;;;;;;;26.75;5.00;;;17.10;99.90;;;;;;5370347;26;20007;-67
2024/04/09 06:20:30;;;;;;;16.95;4.40;;;17.20;99.90;;;;;;5407322;26;20006;-67
2024/04/09 06:22:56;;;;;;;26.40;4.50;;;17.20;99.90;;;;;;5399943;26;20012;-67
2024/04/09 06:25:21;;;;;;;24.33;3.58;;;17.30;99.90;;;;;;5404217;26;20017;-67
2024/04/09 06:27:49;;;;;;;27.33;5.00;;;17.30;99.90;;;;;;5404200;26;20000;-68
2024/04/09 06:30:14;;;;;;;25.05;3.55;;;17.40;99.90;;;;;;5406688;26;20014;-68
2024/04/09 06:32:40;;;;;;;32.33;4.15;;;17.50;99.90;;;;;;5417380;26;19995;-67
2024/04/09 06:35:06;;;;;;;34.10;3.97;;;17.50;99.90;;;;;;5403636;26;20004;-67
2024/04/09 06:37:34;;;;;;;32.72;3.70;;;17.50;99.90;;;;;;5401798;26;20007;-67
2024/04/09 06:39:59;;;;;;;;;;;17.60;99.90;;;;;;5408478;26;19995;-67
2024/04/09 06:42:25;;;;;;;21.75;3.60;;;17.60;99.90;;;;;;5410827;26;19925;-68
2024/04/09 06:44:51;;;;;;;23.27;3.95;;;17.60;99.90;;;;;;5409225;26;20866;-68
2024/04/09 06:47:16;;;;;;;16.13;3.70;;;17.60;99.90;;;;;;5407180;26;20496;-67
2024/04/09 06:49:46;;;;;;;21.08;4.07;;;17.70;99.90;;;;;;5367303;26;20696;-67
2024/04/09 06:52:12;;;;;;;21.63;3.72;;;17.70;99.90;;;;;;5404017;26;20775;-67
2024/04/09 06:54:38;;;;;;;21.08;3.47;;;17.70;99.90;;;;;;5375196;26;19995;-67
2024/04/09 06:57:03;;;;;;;22.58;3.25;;;17.80;99.90;;;;;;5398357;26;19995;-67
2024/04/09 06:59:29;;;;;;;23.00;3.30;;;17.70;99.90;;;;;;5411270;26;20000;-68
2024/04/09 07:01:55;;;;;;;16.25;4.60;;;17.70;99.90;;;;;;5405346;26;20018;-67
2024/04/09 07:04:21;;;;;;;21.50;3.03;;;17.80;99.90;;;;;;5408153;26;20565;-67
2024/04/09 07:06:49;;;;;;;25.48;3.83;;;17.80;99.90;;;;;;5402990;26;20448;-67
2024/04/09 07:09:18;;;;;;;24.13;3.03;;;17.80;99.90;;;;;;5406840;26;19996;-68
2024/04/09 07:11:45;;;;;;;15.23;2.78;;;17.80;99.90;;;;;;5407073;26;20055;-68
2024/04/09 07:14:13;;;;;;;19.33;3.25;;;17.80;99.90;;;;;;5371619;26;20399;-67
2024/04/09 07:16:41;;;;;;;14.50;2.88;;;17.80;99.90;;;;;;5403625;26;20003;-67
2024/04/09 07:19:06;;;;;;;;;;;17.80;99.90;;;;;;5401958;26;20003;-68
2024/04/09 07:21:32;;;;;;;17.35;3.17;;;17.80;99.90;;;;;;5413607;26;19932;-67
2024/04/09 07:23:58;;;;;;;25.25;4.53;;;17.80;99.90;;;;;;5398986;26;20050;-67
2024/04/09 07:26:23;;;;;;;17.42;5.00;;;17.80;99.90;;;;;;5401671;26;20072;-68
2024/04/09 07:28:49;;;;;;;14.82;2.70;;;17.80;99.90;;;;;;5399889;26;20780;-68
2024/04/09 07:31:15;;;;;;;13.70;2.97;;;17.80;99.90;;;;;;5407806;26;20007;-68
2024/04/09 07:33:41;;;;;;;19.80;3.60;;;17.80;99.90;;;;;;5403538;26;20420;-67
2024/04/09 07:36:07;;;;;;;17.40;2.80;;;17.80;99.90;;;;;;5400818;26;20010;-68
2024/04/09 07:38:32;;;;;;;12.85;2.47;;;17.80;99.90;;;;;;5407369;26;20042;-68
2024/04/09 07:40:58;;;;;;;14.43;2.92;;;17.80;99.90;;;;;;5406137;26;20484;-65
2024/04/09 07:43:24;;;;;;;13.95;3.03;;;17.90;99.90;;;;;;5374291;26;20070;-67
2024/04/09 07:45:53;;;;;;;32.45;4.80;;;17.90;99.90;;;;;;5396998;26;19999;-67
2024/04/09 07:48:19;;;;;;;11.10;2.63;;;17.90;99.90;;;;;;5407425;26;20557;-66
2024/04/09 07:50:45;;;;;;;16.48;2.75;;;18.00;99.90;;;;;;5411170;26;19995;-67
2024/04/09 07:53:11;;;;;;;12.30;2.53;;;18.10;99.90;;;;;;5405172;26;20022;-66
2024/04/09 07:55:37;;;;;;;12.18;2.97;;;18.10;99.90;;;;;;5409910;26;20419;-67
2024/04/09 07:58:03;;;;;;;11.55;2.72;;;18.10;99.90;;;;;;5400786;26;20072;-66
2024/04/09 08:00:29;;;;;;;13.80;2.95;;;18.10;99.90;;;;;;5408646;26;20054;-67
2024/04/09 08:02:55;;;;;;;20.13;2.80;;;18.10;99.90;;;;;;5404396;26;19996;-66
2024/04/09 08:05:22;;;;;;;19.58;2.55;;;18.20;99.90;;;;;;5411308;26;20006;-66
2024/04/09 08:07:49;;;;;;;15.13;2.95;;;18.20;99.90;;;;;;5409298;26;19999;-67
2024/04/09 08:10:19;;;;;;;12.65;2.22;;;18.20;99.90;;;;;;5407088;26;20008;-67
2024/04/09 08:12:54;;;;;;;13.88;2.55;;;18.30;99.90;;;;;;5399352;26;20059;-66
2024/04/09 08:15:20;;;;;;;10.20;2.30;;;18.30;99.90;;;;;;5401848;26;20007;-66
2024/04/09 08:17:48;;;;;;;10.82;2.92;;;18.30;99.90;;;;;;5371428;26;20007;-67
2024/04/09 08:20:17;;;;;;;16.58;2.67;;;18.20;99.90;;;;;;5413275;26;20010;-66
2024/04/09 08:22:50;;;;;;;13.70;1.92;;;18.30;99.90;;;;;;5395870;26;19991;-66
2024/04/09 08:25:19;;;;;;;11.45;2.30;;;18.30;99.90;;;;;;5399422;26;20004;-66
2024/04/09 08:27:46;;;;;;;9.88;2.00;;;18.30;99.90;;;;;;5395585;26;20004;-67
2024/04/09 08:30:12;;;;;;;16.88;2.10;;;18.40;99.90;;;;;;5401826;26;20485;-67
2024/04/09 08:32:39;;;;;;;13.50;2.22;;;18.30;99.90;;;;;;5403850;26;19995;-66
2024/04/09 08:35:05;;;;;;;9.90;2.08;;;18.40;99.90;;;;;;5404053;26;20134;-67
2024/04/09 08:37:31;;;;;;;9.30;2.05;;;18.40;99.90;;;;;;5401291;26;20010;-66
2024/04/09 08:39:57;;;;;;;14.75;2.53;;;18.30;99.90;;;;;;5406180;26;20011;-67
2024/04/09 08:42:24;;;;;;;6.22;2.40;;;18.30;99.90;;;;;;5410031;26;20084;-67
2024/04/09 08:44:50;;;;;;;9.07;2.53;;;18.30;99.90;;;;;;5404585;26;20000;-67
2024/04/09 08:47:23;;;;;;;11.82;2.05;;;18.20;99.90;;;;;;5411335;26;20447;-67
2024/04/09 08:49:50;;;;;;;9.80;1.90;;;18.10;99.90;;;;;;5401706;26;20000;-66
2024/04/09 08:52:18;;;;;;;9.23;1.52;;;18.20;99.90;;;;;;5396084;26;20010;-67
2024/04/09 08:54:44;;;;;;;8.75;2.50;;;18.10;99.90;;;;;;5405309;26;19999;-67
2024/04/09 08:57:09;;;;;;;8.70;2.08;;;18.10;99.90;;;;;;5405158;26;20042;-66
2024/04/09 08:59:36;;;;;;;7.88;2.13;;;18.10;99.90;;;;;;5411147;26;19995;-67
2024/04/09 09:02:03;;;;;;;13.38;2.42;;;18.10;99.90;;;;;;5370680;26;20007;-66
2024/04/09 09:04:36;;;;;;;9.50;1.88;;;18.20;99.90;;;;;;5403770;26;20007;-66
2024/04/09 09:07:04;;;;;;;14.70;2.30;;;18.30;99.90;;;;;;5414247;26;20011;-66
2024/04/09 09:09:30;;;;;;;9.15;2.38;;;18.30;99.90;;;;;;5405035;26;20368;-67
2024/04/09 09:12:05;;;;;;;9.13;2.92;;;18.40;99.90;;;;;;5407397;26;20032;-66
2024/04/09 09:14:31;;;;;;;11.52;2.60;;;18.50;99.90;;;;;;5366673;26;20000;-67
2024/04/09 09:17:09;;;;;;;10.93;2.53;;;18.60;99.90;;;;;;5406173;26;19999;-67
2024/04/09 09:19:36;;;;;;;10.63;2.75;;;18.60;99.90;;;;;;5405357;26;19999;-67
2024/04/09 09:22:09;;;;;;;9.47;3.37;;;18.70;99.90;;;;;;5401897;26;23158;-67
2024/04/09 09:24:35;;;;;;;10.30;4.07;;;18.70;99.90;;;;;;5408390;26;20002;-66
2024/04/09 09:27:02;;;;;;;20.48;5.63;;;18.70;99.90;;;;;;5412634;26;20003;-67
2024/04/09 09:29:29;;;;;;;13.02;5.63;;;18.70;99.90;;;;;;5406695;26;20045;-67
2024/04/09 09:31:54;;;;;;;11.32;5.95;;;18.80;99.90;;;;;;5407519;26;20329;-67
2024/04/09 09:34:42;;;;;;;18.67;6.35;;;18.80;99.90;;;;;;5404341;26;20011;-67
2024/04/09 09:37:12;;;;;;;18.30;6.70;;;18.70;99.90;;;;;;5374647;26;19992;-68
2024/04/09 09:39:41;;;;;;;18.08;6.50;;;18.70;99.90;;;;;;5370591;26;19995;-67
2024/04/09 09:42:07;;;;;;;13.80;6.05;;;18.70;99.90;;;;;;5404301;26;20035;-68
2024/04/09 09:44:37;;;;;;;11.80;6.47;;;18.70;99.90;;;;;;5411479;26;20004;-68
2024/04/09 09:47:04;;;;;;;13.98;6.47;;;18.80;99.90;;;;;;5405248;26;20015;-67
2024/04/09 09:49:30;;;;;;;10.75;6.47;;;18.80;99.90;;;;;;5406723;26;20064;-66
2024/04/09 09:51:56;;;;;;;16.25;7.78;;;18.80;99.90;;;;;;5399679;26;20062;-67
2024/04/09 09:54:27;;;;;;;15.85;7.28;;;18.80;99.90;;;;;;5409978;26;19999;-67
2024/04/09 09:57:01;;;;;;;14.60;7.22;;;18.80;99.90;;;;;;5423342;26;20013;-67
2024/04/09 09:59:35;;;;;;;13.05;6.65;;;18.80;99.90;;;;;;5409309;26;20023;-66
2024/04/09 10:02:02;;;;;;;15.20;6.72;;;18.90;99.90;;;;;;5371660;26;20018;-67
2024/04/09 10:04:28;;;;;;;18.98;7.32;;;18.90;99.90;;;;;;5418197;26;20482;-67
2024/04/09 10:06:59;;;;;;;12.80;6.40;;;18.90;99.90;;;;;;5406723;26;20136;-67
2024/04/09 10:09:57;;;;;;;13.57;7.03;;;19.00;99.90;;;;;;5406209;26;20007;-67
2024/04/09 10:12:31;;;;;;;15.27;6.63;;;19.00;99.90;;;;;;5343889;26;20374;-67
2024/04/09 10:14:57;;;;;;;14.70;5.97;;;19.00;99.90;;;;;;5399246;26;20077;-67
2024/04/09 10:17:27;;;;;;;10.23;6.00;;;19.00;99.90;;;;;;5371180;26;20014;-67
2024/04/09 10:19:53;;;;;;;12.45;5.93;;;19.00;99.90;;;;;;5400929;26;19999;-68
2024/04/09 10:22:18;;;;;;;13.18;6.03;;;19.10;99.90;;;;;;5406634;26;20344;-68
2024/04/09 10:24:44;;;;;;;10.73;6.05;;;19.10;99.90;;;;;;5410376;26;19995;-68
2024/04/09 10:27:11;;;;;;;15.07;6.00;;;19.20;99.90;;;;;;5406416;26;20498;-67
2024/04/09 10:29:37;;;;;;;11.03;5.07;;;19.30;99.90;;;;;;5367024;26;20014;-67
2024/04/09 10:32:24;;;;;;;10.23;5.53;;;19.30;99.90;;;;;;5403568;26;20467;-67
2024/04/09 10:34:50;;;;;;;11.60;5.70;;;19.40;99.90;;;;;;5404409;26;20531;-67
2024/04/09 10:37:17;;;;;;;11.98;5.03;;;19.40;99.90;;;;;;5409748;26;19995;-67
2024/04/09 10:39:43;;;;;;;14.32;4.55;;;19.40;99.90;;;;;;5412333;26;20467;-67
2024/04/09 10:42:08;;;;;;;10.60;4.90;;;19.50;99.90;;;;;;5407847;26;19999;-66
2024/04/09 10:44:34;;;;;;;9.48;4.38;;;19.40;99.90;;;;;;5408503;26;20027;-66
2024/04/09 10:47:00;;;;;;;12.32;3.90;;;19.50;99.90;;;;;;5399872;26;19996;-67
2024/04/09 10:49:25;;;;;;;8.27;3.60;;;19.50;99.90;;;;;;5405207;26;20000;-66
2024/04/09 10:51:51;;;;;;;8.05;3.72;;;19.40;99.90;;;;;;5408407;26;20003;-67
2024/04/09 10:54:19;;;;;;;6.53;3.17;;;19.40;99.90;;;;;;5407683;26;20682;-68
2024/04/09 10:56:44;;;;;;;8.93;3.55;;;19.30;99.90;;;;;;5416019;26;20014;-68
2024/04/09 10:59:17;;;;;;;11.68;3.67;;;19.30;99.90;;;;;;5403722;26;20082;-67
2024/04/09 11:01:43;;;;;;;10.80;3.65;;;19.30;99.90;;;;;;5374939;26;19999;-66
2024/04/09 11:04:13;;;;;;;8.93;3.65;;;19.20;99.90;;;;;;5405106;26;20013;-67
2024/04/09 11:06:41;;;;;;;7.10;3.75;;;19.10;99.90;;;;;;5406707;26;20341;-67
2024/04/09 11:09:08;;;;;;;6.85;3.38;;;19.20;99.90;;;;;;5414130;26;20455;-68
2024/04/09 11:11:34;;;;;;;7.80;3.08;;;19.20;99.90;;;;;;5409775;26;19996;-67
2024/04/09 11:14:01;;;;;;;8.95;3.30;;;19.20;99.90;;;;;;5407551;26;19999;-66
2024/04/09 11:16:27;;;;;;;4.95;2.55;;;19.00;99.90;;;;;;5377589;26;20021;-66
2024/04/09 11:19:00;;;;;;;5.80;2.88;;;18.80;99.90;;;;;;5405994;26;20011;-66
2024/04/09 11:21:30;;;;;;;3.83;1.27;;;18.60;99.90;;;;;;5385745;26;19995;-66
2024/04/09 11:23:56;;;;;;;1.45;1.20;;;18.00;99.90;;;;;;5369823;26;19999;-66
2024/04/09 11:26:22;;;;;;;3.38;1.25;;;17.90;99.90;;;;;;5373102;26;20018;-67
2024/04/09 11:28:50;;;;;;;2.83;1.30;;;17.60;99.90;;;;;;5405646;26;20007;-66
2024/04/09 11:31:19;;;;;;;1.90;1.05;;;17.40;99.90;;;;;;5366915;26;20038;-67
2024/04/09 11:33:45;;;;;;;1.85;1.00;;;17.10;99.90;;;;;;5401363;26;20336;-67
2024/04/09 11:36:10;;;;;;;2.45;1.10;;;16.60;99.90;;;;;;5366535;26;20068;-66
2024/04/09 11:38:36;;;;;;;3.50;1.70;;;16.40;99.90;;;;;;5404267;26;20064;-68
2024/04/09 11:41:02;;;;;;;2.75;1.10;;;16.20;99.90;;;;;;5365874;26;20018;-66
2024/04/09 11:43:30;;;;;;;3.22;1.20;;;16.10;99.90;;;;;;5406933;26;19999;-66
2024/04/09 11:45:59;;;;;;;5.72;1.35;;;15.90;99.90;;;;;;5408129;26;20537;-67
2024/04/09 11:48:24;;;;;;;1.38;1.13;;;15.90;99.90;;;;;;5412498;26;20058;-66
2024/04/09 11:50:50;;;;;;;3.25;1.30;;;15.90;99.90;;;;;;5364753;26;19995;-67
2024/04/09 11:53:16;;;;;;;7.78;1.55;;;15.80;99.90;;;;;;5407393;26;20003;-66
2024/04/09 11:55:42;;;;;;;1.30;1.02;;;15.80;99.90;;;;;;5363034;26;20004;-66
2024/04/09 11:58:09;;;;;;;7.15;1.50;;;15.70;99.90;;;;;;5402378;26;20559;-66
2024/04/09 12:00:35;;;;;;;2.75;1.50;;;15.70;99.90;;;;;;5408551;26;20014;-67
2024/04/09 12:03:02;;;;;;;3.90;1.10;;;15.70;99.90;;;;;;5392501;26;19999;-67
2024/04/09 12:05:27;;;;;;;1.73;1.20;;;15.70;99.90;;;;;;5414860;26;19995;-66
2024/04/09 12:07:53;;;;;;;1.90;1.60;;;15.70;99.90;;;;;;5408100;26;20025;-66
2024/04/09 12:10:18;;;;;;;3.42;1.20;;;15.80;99.90;;;;;;5398186;26;20007;-68
2024/04/09 12:12:44;;;;;;;5.82;1.20;;;15.80;99.90;;;;;;5402898;26;19999;-67
2024/04/09 12:15:10;;;;;;;2.90;1.52;;;15.70;99.90;;;;;;5367410;26;20018;-66
2024/04/09 12:17:36;;;;;;;2.50;1.23;;;15.60;99.90;;;;;;5398418;26;20063;-67
2024/04/09 12:20:02;;;;;;;2.53;1.55;;;15.60;99.90;;;;;;5403676;26;20014;-67
2024/04/09 12:22:28;;;;;;;3.10;1.40;;;15.50;99.90;;;;;;5407100;26;20011;-66
2024/04/09 12:24:56;;;;;;;2.45;1.25;;;15.50;99.90;;;;;;5408904;26;20011;-67
2024/04/09 12:27:21;;;;;;;1.42;0.90;;;15.40;99.90;;;;;;5405582;26;19999;-66
2024/04/09 12:29:47;;;;;;;9.48;0.80;;;15.10;98.70;;;;;;5401863;26;20028;-67
2024/04/09 12:32:13;;;;;;;2.70;0.60;;;15.00;97.10;;;;;;5407696;26;20000;-66
2024/04/09 12:34:39;;;;;;;3.15;0.95;;;14.80;96.60;;;;;;5405202;26;20011;-66
2024/04/09 12:37:07;;;;;;;5.32;0.68;;;14.70;97.00;;;;;;5365131;26;21041;-66
2024/04/09 12:39:34;;;;;;;2.38;0.73;;;14.60;96.90;;;;;;5401581;26;20348;-67